createdAt,value
2023-10-18T00:02:18.073Z,17.45
2023-10-18T00:04:46.017Z,17.85
2023-10-18T00:07:14.879Z,18.33
2023-10-18T00:09:52.257Z,15.77
2023-10-18T00:12:20.136Z,23.67
2023-10-18T00:14:51.091Z,14.82
2023-10-18T00:17:18.731Z,16.40
2023-10-18T00:19:47.248Z,15.18
2023-10-18T00:22:14.807Z,15.43
2023-10-18T00:24:43.250Z,17.65
2023-10-18T00:27:10.788Z,16.52
2023-10-18T00:29:38.571Z,17.58
2023-10-18T00:32:06.768Z,18.85
2023-10-18T00:34:34.314Z,20.13
2023-10-18T00:37:02.257Z,17.73
2023-10-18T00:39:30.843Z,19.02
2023-10-18T00:42:18.457Z,16.85
2023-10-18T00:44:56.231Z,17.88
2023-10-18T00:47:25.170Z,19.75
2023-10-18T00:49:54.019Z,19.88
2023-10-18T00:52:24.847Z,19.00
2023-10-18T00:54:52.469Z,20.13
2023-10-18T00:57:39.165Z,21.15
2023-10-18T01:00:20.535Z,16.85
2023-10-18T01:02:51.236Z,18.98
2023-10-18T01:05:21.988Z,16.55
2023-10-18T01:07:54.442Z,16.70
2023-10-18T01:10:25.273Z,19.17
2023-10-18T01:12:55.528Z,16.35
2023-10-18T01:15:24.358Z,17.00
2023-10-18T01:17:52.010Z,18.30
2023-10-18T01:20:39.198Z,15.50
2023-10-18T01:23:08.601Z,15.55
2023-10-18T01:25:37.142Z,18.17
2023-10-18T01:28:06.786Z,16.17
2023-10-18T01:30:34.677Z,16.55
2023-10-18T01:33:02.781Z,16.85
2023-10-18T01:35:32.633Z,18.90
2023-10-18T01:38:02.052Z,22.48
2023-10-18T01:40:29.613Z,15.00
2023-10-18T01:42:58.068Z,16.60
2023-10-18T01:45:36.847Z,18.63
2023-10-18T01:48:11.151Z,17.88
2023-10-18T01:50:40.567Z,19.30
2023-10-18T01:53:17.143Z,18.63
2023-10-18T01:55:52.523Z,17.30
2023-10-18T01:58:26.599Z,18.40
2023-10-18T02:00:57.913Z,18.50
2023-10-18T02:03:25.792Z,17.35
2023-10-18T02:05:53.493Z,18.10
2023-10-18T02:08:22.166Z,20.95
2023-10-18T02:10:51.615Z,20.80
2023-10-18T02:13:20.653Z,18.88
2023-10-18T02:15:49.687Z,17.88
2023-10-18T02:18:18.130Z,22.40
2023-10-18T02:20:53.101Z,17.88
2023-10-18T02:23:23.141Z,15.52
2023-10-18T02:25:51.250Z,19.08
2023-10-18T02:28:29.099Z,16.25
2023-10-18T02:30:59.194Z,17.30
2023-10-18T02:33:42.183Z,22.17
2023-10-18T02:36:21.913Z,20.15
2023-10-18T02:38:54.085Z,21.58
2023-10-18T02:41:30.923Z,16.88
2023-10-18T02:43:59.907Z,20.83
2023-10-18T02:46:28.192Z,19.23
2023-10-18T02:48:58.510Z,19.75
2023-10-18T02:51:28.075Z,21.55
2023-10-18T02:54:20.189Z,19.65
2023-10-18T02:57:00.460Z,22.50
2023-10-18T02:59:29.675Z,23.15
2023-10-18T03:01:58.589Z,21.00
2023-10-18T03:04:28.938Z,17.90
2023-10-18T03:06:57.222Z,20.25
2023-10-18T03:09:28.897Z,22.48
2023-10-18T03:11:58.239Z,18.55
2023-10-18T03:14:41.377Z,23.52
2023-10-18T03:17:35.715Z,17.70
2023-10-18T03:20:20.918Z,21.80
2023-10-18T03:22:50.309Z,17.38
2023-10-18T03:25:18.716Z,18.60
2023-10-18T03:27:52.700Z,16.27
2023-10-18T03:30:20.406Z,17.52
2023-10-18T03:32:55.718Z,19.80
2023-10-18T03:35:23.765Z,17.75
2023-10-18T03:37:51.464Z,17.48
2023-10-18T03:40:25.390Z,17.90
2023-10-18T03:42:56.254Z,19.48
2023-10-18T03:45:29.180Z,19.85
2023-10-18T03:48:00.716Z,21.25
2023-10-18T03:50:41.817Z,19.17
2023-10-18T03:53:14.418Z,17.05
2023-10-18T03:55:43.867Z,20.63
2023-10-18T03:58:23.713Z,24.67
2023-10-18T04:00:58.087Z,18.88
2023-10-18T04:03:31.146Z,21.58
2023-10-18T04:06:06.987Z,17.40
2023-10-18T04:08:35.774Z,18.27
2023-10-18T04:11:03.474Z,15.98
2023-10-18T04:13:33.694Z,16.73
2023-10-18T04:16:04.982Z,17.63
2023-10-18T04:18:36.211Z,17.52
2023-10-18T04:21:06.494Z,17.17
2023-10-18T04:23:35.734Z,18.38
2023-10-18T04:26:04.965Z,20.90
2023-10-18T04:28:38.721Z,19.95
2023-10-18T04:31:12.639Z,20.13
2023-10-18T04:33:44.286Z,20.80
2023-10-18T04:36:13.914Z,21.23
2023-10-18T04:38:46.078Z,19.27
2023-10-18T04:41:24.548Z,19.45
2023-10-18T04:44:00.814Z,19.08
2023-10-18T04:46:30.828Z,22.45
2023-10-18T04:49:01.581Z,23.25
2023-10-18T04:51:50.000Z,28.67
2023-10-18T04:54:19.022Z,24.02
2023-10-18T04:56:48.190Z,21.05
2023-10-18T04:59:19.941Z,18.00
2023-10-18T05:01:55.539Z,17.92
2023-10-18T05:04:34.386Z,18.67
2023-10-18T05:07:10.985Z,18.13
2023-10-18T05:09:45.420Z,19.35
2023-10-18T05:12:16.308Z,18.30
2023-10-18T05:17:25.311Z,22.50
2023-10-18T05:19:57.356Z,17.13
2023-10-18T05:22:26.860Z,20.80
2023-10-18T05:25:16.400Z,19.17
2023-10-18T05:28:01.084Z,23.38
2023-10-18T05:30:49.424Z,24.33
2023-10-18T05:33:30.872Z,21.42
2023-10-18T05:36:23.398Z,24.42
2023-10-18T05:38:54.065Z,26.35
2023-10-18T05:41:21.612Z,30.05
2023-10-18T05:43:49.169Z,25.88
2023-10-18T05:46:18.823Z,21.45
2023-10-18T05:48:46.550Z,25.52
2023-10-18T05:54:00.257Z,23.73
2023-10-18T05:56:31.180Z,25.83
2023-10-18T05:59:27.397Z,20.50
2023-10-18T06:02:02.425Z,24.67
2023-10-18T06:04:39.654Z,25.25
2023-10-18T06:07:14.395Z,24.20
2023-10-18T06:09:48.712Z,28.38
2023-10-18T06:12:43.669Z,25.88
2023-10-18T06:15:17.648Z,30.00
2023-10-18T06:17:50.233Z,33.38
2023-10-18T06:20:30.214Z,25.33
2023-10-18T06:23:29.516Z,35.45
2023-10-18T06:26:01.176Z,34.55
2023-10-18T06:28:32.120Z,28.33
2023-10-18T06:31:00.610Z,26.20
2023-10-18T06:33:36.517Z,31.35
2023-10-18T06:36:13.331Z,28.48
2023-10-18T06:38:43.602Z,28.00
2023-10-18T06:41:20.073Z,28.60
2023-10-18T06:43:49.653Z,30.00
2023-10-18T06:46:28.359Z,34.63
2023-10-18T06:49:11.622Z,26.48
2023-10-18T06:51:44.621Z,26.60
2023-10-18T06:54:15.696Z,27.55
2023-10-18T06:56:46.768Z,26.50
2023-10-18T06:59:14.775Z,25.17
2023-10-18T07:02:08.462Z,26.10
2023-10-18T07:04:39.524Z,28.05
2023-10-18T07:07:21.141Z,28.75
2023-10-18T07:09:56.263Z,25.25
2023-10-18T07:12:37.452Z,21.83
2023-10-18T07:15:10.636Z,21.33
2023-10-18T07:17:38.831Z,19.63
2023-10-18T07:20:16.784Z,20.30
2023-10-18T07:22:50.698Z,21.20
2023-10-18T07:25:22.603Z,18.23
2023-10-18T07:27:51.117Z,18.23
2023-10-18T07:30:18.821Z,18.33
2023-10-18T07:32:49.297Z,19.17
2023-10-18T07:35:32.055Z,18.48
2023-10-18T07:37:59.574Z,19.98
2023-10-18T07:40:34.558Z,18.30
2023-10-18T07:43:06.634Z,20.77
2023-10-18T07:45:34.162Z,18.33
2023-10-18T07:48:06.414Z,16.95
2023-10-18T07:50:43.192Z,19.55
2023-10-18T07:53:14.040Z,18.08
2023-10-18T07:55:49.746Z,17.45
2023-10-18T07:58:41.340Z,15.48
2023-10-18T08:01:10.850Z,17.15
2023-10-18T08:03:39.673Z,18.90
2023-10-18T08:06:27.380Z,18.40
2023-10-18T08:08:55.263Z,18.00
2023-10-18T08:11:25.132Z,22.23
2023-10-18T08:13:54.161Z,15.68
2023-10-18T08:16:22.313Z,19.20
2023-10-18T08:18:58.542Z,20.77
2023-10-18T08:21:49.251Z,19.17
2023-10-18T08:24:21.877Z,19.23
2023-10-18T08:26:49.693Z,19.00
2023-10-18T08:29:17.623Z,20.27
2023-10-18T08:31:49.637Z,20.20
2023-10-18T08:34:19.243Z,17.75
2023-10-18T08:36:47.021Z,17.52
2023-10-18T08:39:14.563Z,21.02
2023-10-18T08:42:00.646Z,19.67
2023-10-18T08:44:30.947Z,19.23
2023-10-18T08:47:10.129Z,20.33
2023-10-18T08:49:57.462Z,22.88
2023-10-18T08:52:25.400Z,16.60
2023-10-18T08:54:54.388Z,16.02
2023-10-18T08:57:37.301Z,20.90
2023-10-18T09:00:38.529Z,15.05
2023-10-18T09:03:08.791Z,16.08
2023-10-18T09:05:37.433Z,17.27
2023-10-18T09:08:06.289Z,16.58
2023-10-18T09:10:35.557Z,17.05
2023-10-18T09:13:19.408Z,19.25
2023-10-18T09:16:00.196Z,15.38
2023-10-18T09:18:32.279Z,20.52
2023-10-18T09:21:09.446Z,16.52
2023-10-18T09:23:37.277Z,16.00
2023-10-18T09:26:19.799Z,17.23
2023-10-18T09:28:48.081Z,25.48
2023-10-18T09:31:23.024Z,15.07
2023-10-18T09:33:53.635Z,18.73
2023-10-18T09:36:22.228Z,18.80
2023-10-18T09:38:51.339Z,19.33
2023-10-18T09:41:19.598Z,17.90
2023-10-18T09:43:50.417Z,18.25
2023-10-18T09:46:19.457Z,14.05
2023-10-18T09:48:48.133Z,17.83
2023-10-18T09:51:22.108Z,16.02
2023-10-18T09:53:55.553Z,22.50
2023-10-18T09:56:34.235Z,18.67
2023-10-18T09:59:06.893Z,18.63
2023-10-18T10:01:44.538Z,20.05
2023-10-18T10:04:15.769Z,20.23
2023-10-18T10:06:48.057Z,18.13
2023-10-18T10:09:17.095Z,19.25
2023-10-18T10:11:46.656Z,21.42
2023-10-18T10:14:18.738Z,21.63
2023-10-18T10:16:55.869Z,17.30
2023-10-18T10:19:30.345Z,17.13
2023-10-18T10:22:06.448Z,16.90
2023-10-18T10:24:56.236Z,18.27
2023-10-18T10:27:33.593Z,15.95
2023-10-18T10:30:20.879Z,20.52
2023-10-18T10:32:50.710Z,17.05
2023-10-18T10:35:25.335Z,17.27
2023-10-18T10:40:29.708Z,20.08
2023-10-18T10:43:11.559Z,20.58
2023-10-18T10:45:55.136Z,15.80
2023-10-18T10:48:28.769Z,18.73
2023-10-18T10:51:21.354Z,19.45
2023-10-18T10:53:58.652Z,19.90
2023-10-18T10:56:34.171Z,20.08
2023-10-18T10:59:08.809Z,18.98
2023-10-18T11:01:58.524Z,17.23
2023-10-18T11:04:26.637Z,22.50
2023-10-18T11:06:59.379Z,14.75
2023-10-18T11:09:34.661Z,14.15
2023-10-18T11:12:11.768Z,17.25
2023-10-18T11:14:40.042Z,18.63
2023-10-18T11:17:17.219Z,19.20
2023-10-18T11:19:52.777Z,31.23
2023-10-18T11:22:23.701Z,17.00
2023-10-18T11:24:54.861Z,15.90
2023-10-18T11:27:26.990Z,16.98
2023-10-18T11:30:12.487Z,13.63
2023-10-18T11:32:42.021Z,14.63
2023-10-18T11:35:19.536Z,15.90
2023-10-18T11:37:49.160Z,20.25
2023-10-18T11:40:19.880Z,17.63
2023-10-18T11:43:10.132Z,17.50
2023-10-18T11:45:40.220Z,16.05
2023-10-18T11:48:11.369Z,19.10
2023-10-18T11:50:49.923Z,19.10
2023-10-18T11:53:21.608Z,27.88
2023-10-18T11:55:56.762Z,37.63
2023-10-18T11:58:29.951Z,26.85
2023-10-18T12:01:02.666Z,14.50
2023-10-18T12:03:30.957Z,19.85
2023-10-18T12:05:59.078Z,18.45
2023-10-18T12:08:31.464Z,16.17
2023-10-18T12:10:59.135Z,16.98
2023-10-18T12:13:27.834Z,18.50
2023-10-18T12:16:01.607Z,15.07
2023-10-18T12:18:30.354Z,19.13
2023-10-18T12:20:59.510Z,18.08
2023-10-18T12:23:27.575Z,18.33
2023-10-18T12:25:55.137Z,16.85
2023-10-18T12:28:36.899Z,18.73
2023-10-18T12:31:14.156Z,14.65
2023-10-18T12:33:42.179Z,23.30
2023-10-18T12:36:09.857Z,20.10
2023-10-18T12:38:39.607Z,17.95
2023-10-18T12:41:19.729Z,16.80
2023-10-18T12:43:47.720Z,18.05
2023-10-18T12:46:21.021Z,17.77
2023-10-18T12:48:51.298Z,49.00
2023-10-18T12:51:19.851Z,25.05
2023-10-18T12:58:31.525Z,21.75
2023-10-18T13:01:26.059Z,88.18
2023-10-18T13:04:00.163Z,41.30
2023-10-18T13:09:24.926Z,22.38
2023-10-18T13:12:01.804Z,27.80
2023-10-18T13:14:33.108Z,16.65
2023-10-18T13:17:04.766Z,20.35
2023-10-18T13:19:33.454Z,22.48
2023-10-18T13:22:01.136Z,18.35
2023-10-18T13:24:32.583Z,18.85
2023-10-18T13:27:04.186Z,20.70
2023-10-18T13:29:32.563Z,19.05
2023-10-18T13:32:07.690Z,79.10
2023-10-18T13:34:38.263Z,25.40
2023-10-18T13:37:11.145Z,28.15
2023-10-18T13:39:43.466Z,19.33
2023-10-18T13:42:13.035Z,55.15
2023-10-18T13:44:42.659Z,21.25
2023-10-18T13:47:14.191Z,26.00
2023-10-18T13:49:43.315Z,19.73
2023-10-18T13:52:12.773Z,21.65
2023-10-18T13:54:42.348Z,20.13
2023-10-18T13:57:10.211Z,20.67
2023-10-18T13:59:39.504Z,24.42
2023-10-18T14:02:07.844Z,21.40
2023-10-18T14:04:36.808Z,20.77
2023-10-18T14:07:06.486Z,18.95
2023-10-18T14:09:35.891Z,21.05
2023-10-18T14:12:05.301Z,20.55
2023-10-18T14:14:34.473Z,22.48
2023-10-18T14:17:04.884Z,20.40
2023-10-18T14:19:34.058Z,18.02
2023-10-18T14:22:02.013Z,21.35
2023-10-18T14:24:30.765Z,21.23
2023-10-18T14:27:00.528Z,20.67
2023-10-18T14:29:28.679Z,19.13
2023-10-18T14:31:56.494Z,29.55
2023-10-18T14:34:24.315Z,29.17
2023-10-18T14:36:52.439Z,29.92
2023-10-18T14:41:54.116Z,34.25
2023-10-18T14:44:21.807Z,49.10
2023-10-18T14:46:49.400Z,28.38
2023-10-18T14:49:16.921Z,33.55
2023-10-18T14:51:45.686Z,25.85
2023-10-18T14:54:15.692Z,29.25
2023-10-18T14:56:44.223Z,26.10
2023-10-18T14:59:12.236Z,34.03
2023-10-18T15:01:40.876Z,35.50
2023-10-18T15:04:08.776Z,39.78
2023-10-18T15:06:38.775Z,33.83
2023-10-18T15:09:07.592Z,31.05
2023-10-18T15:11:35.424Z,24.00
2023-10-18T15:14:04.280Z,35.92
2023-10-18T15:16:32.142Z,29.63
2023-10-18T15:18:59.838Z,35.97
2023-10-18T15:21:27.957Z,33.30
2023-10-18T15:23:55.432Z,27.05
2023-10-18T15:26:27.418Z,35.25
2023-10-18T15:28:57.085Z,35.60
2023-10-18T15:31:24.824Z,31.63
2023-10-18T15:33:53.138Z,42.78
2023-10-18T15:36:24.641Z,47.83
2023-10-18T15:38:55.182Z,32.80
2023-10-18T15:41:24.766Z,39.50
2023-10-18T15:43:54.497Z,43.42
2023-10-18T15:46:30.628Z,43.55
2023-10-18T15:48:59.012Z,33.17
2023-10-18T15:51:28.767Z,34.45
2023-10-18T15:53:59.753Z,35.10
2023-10-18T15:56:29.783Z,31.60
2023-10-18T15:58:59.742Z,29.65
2023-10-18T16:01:31.057Z,24.77
2023-10-18T16:04:01.417Z,27.03
2023-10-18T16:06:30.278Z,26.70
2023-10-18T16:08:57.797Z,30.17
2023-10-18T16:11:25.396Z,27.20
2023-10-18T16:13:57.112Z,38.92
2023-10-18T16:16:27.487Z,26.10
2023-10-18T16:18:56.999Z,23.77
2023-10-18T16:21:25.413Z,32.92
2023-10-18T16:23:53.701Z,28.77
2023-10-18T16:26:23.637Z,30.50
2023-10-18T16:28:51.906Z,29.60
2023-10-18T16:31:22.870Z,28.92
2023-10-18T16:33:50.622Z,72.22
2023-10-18T16:36:19.332Z,195.75
2023-10-18T16:38:52.150Z,35.47
2023-10-18T16:41:20.406Z,35.13
2023-10-18T16:43:48.994Z,45.95
2023-10-18T16:46:17.995Z,38.85
2023-10-18T16:48:47.315Z,98.05
2023-10-18T16:51:17.772Z,129.80
2023-10-18T16:53:50.410Z,114.90
2023-10-18T16:56:18.509Z,184.82
2023-10-18T16:58:49.845Z,93.80
2023-10-18T17:01:20.076Z,80.90
2023-10-18T17:03:48.952Z,57.13
2023-10-18T17:06:17.725Z,44.80
2023-10-18T17:08:47.083Z,58.28
2023-10-18T17:11:15.976Z,42.28
2023-10-18T17:13:48.811Z,36.88
2023-10-18T17:16:18.487Z,32.80
2023-10-18T17:18:48.481Z,29.33
2023-10-18T17:21:20.652Z,23.08
2023-10-18T17:23:51.095Z,22.23
2023-10-18T17:26:19.257Z,20.83
2023-10-18T17:28:50.149Z,21.05
2023-10-18T17:31:23.766Z,24.45
2023-10-18T17:33:51.565Z,26.67
2023-10-18T17:36:20.258Z,23.52
2023-10-18T17:38:49.627Z,22.13
2023-10-18T17:41:17.485Z,25.63
2023-10-18T17:43:48.023Z,25.27
2023-10-18T17:46:16.731Z,22.25
2023-10-18T17:48:44.352Z,23.98
2023-10-18T17:51:12.978Z,21.30
2023-10-18T17:53:41.059Z,22.42
2023-10-18T17:56:11.770Z,17.83
2023-10-18T17:58:39.730Z,22.52
2023-10-18T18:01:07.668Z,25.73
2023-10-18T18:03:37.592Z,22.83
2023-10-18T18:06:09.562Z,21.63
2023-10-18T18:08:41.511Z,28.67
2023-10-18T18:11:09.444Z,23.17
2023-10-18T18:13:39.564Z,25.92
2023-10-18T18:16:17.912Z,24.75
2023-10-18T18:18:45.750Z,23.90
2023-10-18T18:21:13.842Z,22.67
2023-10-18T18:23:45.612Z,22.92
2023-10-18T18:26:15.972Z,27.65
2023-10-18T18:28:44.626Z,29.52
2023-10-18T18:31:14.722Z,23.05
2023-10-18T18:33:42.313Z,22.50
2023-10-18T18:36:10.295Z,22.27
2023-10-18T18:38:37.982Z,23.50
2023-10-18T18:41:09.507Z,21.55
2023-10-18T18:43:37.590Z,23.25
2023-10-18T18:46:05.160Z,23.40
2023-10-18T18:48:33.370Z,21.55
2023-10-18T18:51:05.347Z,26.85
2023-10-18T18:53:36.778Z,19.42
2023-10-18T18:56:09.281Z,24.33
2023-10-18T18:58:36.925Z,24.98
2023-10-18T19:01:05.230Z,26.83
2023-10-18T19:03:33.525Z,26.15
2023-10-18T19:06:06.433Z,23.23
2023-10-18T19:08:34.065Z,22.00
2023-10-18T19:11:01.929Z,19.25
2023-10-18T19:13:29.876Z,22.98
2023-10-18T19:16:07.028Z,20.83
2023-10-18T19:18:36.502Z,23.52
2023-10-18T19:21:10.460Z,23.08
2023-10-18T19:23:41.875Z,20.10
2023-10-18T19:26:13.392Z,23.45
2023-10-18T19:28:42.173Z,23.67
2023-10-18T19:31:17.878Z,27.80
2023-10-18T19:33:46.851Z,26.67
2023-10-18T19:36:16.625Z,27.85
2023-10-18T19:38:48.813Z,28.13
2023-10-18T19:41:18.548Z,24.73
2023-10-18T19:43:46.481Z,29.40
2023-10-18T19:46:14.439Z,27.67
2023-10-18T19:48:43.189Z,27.33
2023-10-18T19:51:16.033Z,28.10
2023-10-18T19:53:45.695Z,28.08
2023-10-18T19:56:14.807Z,27.85
2023-10-18T19:58:42.997Z,28.85
2023-10-18T20:01:10.621Z,25.35
2023-10-18T20:03:40.498Z,28.05
2023-10-18T20:06:08.688Z,24.13
2023-10-18T20:08:37.198Z,28.45
2023-10-18T20:11:06.958Z,25.27
2023-10-18T20:13:34.462Z,29.83
2023-10-18T20:16:02.641Z,37.53
2023-10-18T20:18:31.679Z,33.03
2023-10-18T20:21:00.454Z,29.17
2023-10-18T20:23:28.114Z,22.38
2023-10-18T20:26:06.555Z,23.23
2023-10-18T20:28:34.142Z,22.27
2023-10-18T20:31:02.369Z,19.95
2023-10-18T20:33:30.684Z,21.15
2023-10-18T20:35:58.968Z,23.10
2023-10-18T20:38:28.126Z,21.58
2023-10-18T20:40:55.814Z,24.00
2023-10-18T20:43:30.390Z,20.25
2023-10-18T20:48:41.667Z,20.88
2023-10-18T20:51:11.625Z,23.23
2023-10-18T20:53:41.915Z,20.20
2023-10-18T20:56:09.720Z,21.75
2023-10-18T20:58:42.284Z,23.83
2023-10-18T21:01:29.081Z,21.38
2023-10-18T21:03:59.561Z,22.88
2023-10-18T21:06:31.560Z,24.92
2023-10-18T21:08:59.467Z,24.48
2023-10-18T21:11:27.049Z,24.23
2023-10-18T21:13:55.389Z,24.38
2023-10-18T21:16:23.163Z,23.45
2023-10-18T21:18:50.738Z,22.85
2023-10-18T21:21:19.664Z,23.17
2023-10-18T21:23:47.217Z,19.15
2023-10-18T21:26:15.056Z,21.92
2023-10-18T21:28:44.244Z,22.73
2023-10-18T21:31:14.640Z,23.48
2023-10-18T21:33:42.683Z,25.65
2023-10-18T21:36:12.700Z,24.23
2023-10-18T21:38:42.129Z,23.77
2023-10-18T21:41:19.880Z,24.67
2023-10-18T21:43:49.394Z,23.35
2023-10-18T21:46:17.687Z,29.35
2023-10-18T21:48:45.782Z,24.58
2023-10-18T21:51:14.688Z,24.67
2023-10-18T21:53:43.145Z,22.35
2023-10-18T21:56:14.905Z,24.98
2023-10-18T21:58:47.112Z,25.63
2023-10-18T22:01:34.526Z,22.50
2023-10-18T22:04:05.165Z,25.83
2023-10-18T22:06:35.379Z,20.92
2023-10-18T22:09:23.149Z,19.70
2023-10-18T22:11:52.248Z,21.05
2023-10-18T22:14:20.368Z,21.08
2023-10-18T22:16:54.386Z,23.00
2023-10-18T22:19:31.774Z,23.13
2023-10-18T22:22:12.481Z,22.23
2023-10-18T22:24:40.771Z,21.70
2023-10-18T22:27:15.801Z,22.15
2023-10-18T22:29:48.777Z,23.55
2023-10-18T22:32:25.589Z,26.15
2023-10-18T22:34:53.966Z,21.33
2023-10-18T22:37:23.116Z,18.90
2023-10-18T22:39:52.010Z,23.80
2023-10-18T22:42:39.958Z,23.20
2023-10-18T22:45:25.620Z,20.60
2023-10-18T22:47:53.798Z,22.58
2023-10-18T22:50:21.468Z,20.75
2023-10-18T22:52:53.223Z,22.50
2023-10-18T22:55:24.117Z,23.83
2023-10-18T22:58:00.869Z,26.13
2023-10-18T23:00:32.818Z,26.45
2023-10-18T23:03:11.151Z,26.63
2023-10-18T23:05:42.949Z,26.83
2023-10-18T23:08:22.079Z,27.98
2023-10-18T23:10:53.250Z,25.63
2023-10-18T23:13:46.606Z,30.40
2023-10-18T23:16:37.237Z,23.05
2023-10-18T23:19:11.596Z,23.77
2023-10-18T23:21:42.854Z,29.92
2023-10-18T23:24:16.557Z,23.13
2023-10-18T23:27:02.819Z,27.52
2023-10-18T23:29:40.884Z,25.35
2023-10-18T23:32:17.997Z,29.90
2023-10-18T23:34:51.767Z,25.58
2023-10-18T23:37:31.212Z,26.63
2023-10-18T23:39:58.871Z,20.67
2023-10-18T23:42:34.781Z,28.67
2023-10-18T23:45:22.607Z,22.95
2023-10-18T23:47:50.183Z,24.70
2023-10-18T23:50:36.506Z,19.33
2023-10-18T23:53:13.244Z,25.83
2023-10-18T23:55:52.965Z,23.52
2023-10-18T23:58:30.276Z,21.70
